Benbrook, Texas
Current Conditions -  °F | °C
As of 11:52 AM on Thursday 29 Jan 2015 (Local Time) from KNFW Reporting Station
Few Clouds Few Clouds  
Wind Chill: 66°   Ceiling: Unl
Heat Index: 66°   Visibility: 10mi
Dew Point: 35°   Wind: 18mph
Humidity: 32%   Direction: 20°NNE
Pressure: 30.34"   Gusts: 25mph
Location:  32.68°N, 97.45°W
Report Text: KNFW 291752Z 02016G22KT 10SM FEW250 19/02 A3034 RMK AO2 SLP256 T01890017 50018 $
Loading
Personal Weather Stations






























Interactive Weather Map New forecast layout! Learn more

10-Day Weather Forecast

Advertisements
Track Severe Weather on mobile